Time;durP1;ratioP1;P1;durP2;ratioP2;P2;SDS_P1;SDS_P2;PMS_P1;PMS_P2;Temp;Humidity;BMP_temperature;BMP_pressure;BME280_temperature;BME280_humidity;BME280_pressure;Samples;Min_cycle;Max_cycle;Signal;HPM_P1;HPM_P2
2022/01/05 00:01:50;;;;;;;14.05;0.93;;;;;;;;;;5053327;28;20044;-62
2022/01/05 00:04:16;;;;;;;9.35;0.63;;;;;;;;;;5072635;28;20436;-62
2022/01/05 00:06:42;;;;;;;10.80;0.77;;;;;;;;;;5045147;28;20037;-62
2022/01/05 00:09:08;;;;;;;11.05;0.90;;;;;;;;;;5078782;28;20064;-62
2022/01/05 00:11:36;;;;;;;8.57;0.70;;;;;;;;;;5102881;28;20409;-62
2022/01/05 00:14:02;;;;;;;13.95;0.80;;;;;;;;;;5064716;28;20039;-62
2022/01/05 00:16:28;;;;;;;11.50;1.70;;;;;;;;;;5080665;28;20043;-62
2022/01/05 00:18:54;;;;;;;14.85;0.88;;;;;;;;;;5099235;28;20134;-62
2022/01/05 00:21:20;;;;;;;13.10;0.80;;;;;;;;;;5080739;28;20564;-62
2022/01/05 00:23:46;;;;;;;10.70;0.98;;;;;;;;;;5081022;28;20044;-62
2022/01/05 00:26:12;;;;;;;18.63;1.30;;;;;;;;;;5076068;28;20512;-62
2022/01/05 00:28:38;;;;;;;14.43;1.10;;;;;;;;;;5083655;28;20123;-62
2022/01/05 00:31:04;;;;;;;10.75;1.25;;;;;;;;;;5100361;28;20081;-63
2022/01/05 00:33:30;;;;;;;10.00;0.68;;;;;;;;;;5047782;28;20054;-62
2022/01/05 00:35:56;;;;;;;14.45;0.80;;;;;;;;;;5076135;28;20036;-62
2022/01/05 00:38:23;;;;;;;14.88;1.50;;;;;;;;;;5065084;28;20557;-62
2022/01/05 00:40:49;;;;;;;13.23;1.45;;;;;;;;;;5067198;28;20044;-62
2022/01/05 00:43:15;;;;;;;10.25;0.90;;;;;;;;;;5063919;28;20074;-62
2022/01/05 00:45:41;;;;;;;11.48;0.77;;;;;;;;;;5098477;28;20412;-61
2022/01/05 00:48:07;;;;;;;11.02;0.93;;;;;;;;;;5079834;28;20032;-62
2022/01/05 00:50:33;;;;;;;11.82;0.85;;;;;;;;;;5078791;28;20036;-62
2022/01/05 00:53:00;;;;;;;10.38;1.02;;;;;;;;;;5100512;28;20466;-62
2022/01/05 00:55:30;;;;;;;10.10;0.68;;;;;;;;;;5083321;28;20126;-61
2022/01/05 00:57:56;;;;;;;12.43;0.77;;;;;;;;;;5064868;28;20142;-62
2022/01/05 01:00:22;;;;;;;9.75;0.77;;;;;;;;;;5065304;28;20040;-62
2022/01/05 01:02:48;;;;;;;11.13;1.50;;;;;;;;;;5062681;28;20181;-61
2022/01/05 01:05:15;;;;;;;9.75;1.02;;;;;;;;;;5062224;28;20042;-62
2022/01/05 01:07:41;;;;;;;10.20;0.90;;;;;;;;;;5079619;28;20044;-62
2022/01/05 01:10:08;;;;;;;9.23;0.63;;;;;;;;;;5063480;28;20186;-62
2022/01/05 01:12:36;;;;;;;9.60;0.80;;;;;;;;;;5079075;28;20481;-62
2022/01/05 01:15:05;;;;;;;12.82;1.20;;;;;;;;;;5078387;28;20047;-62
2022/01/05 01:17:31;;;;;;;10.73;0.80;;;;;;;;;;5076492;28;20393;-63
2022/01/05 01:19:57;;;;;;;13.02;1.08;;;;;;;;;;5076612;28;20050;-63
2022/01/05 01:22:24;;;;;;;15.77;1.42;;;;;;;;;;5078632;28;20060;-63
2022/01/05 01:24:53;;;;;;;16.48;2.05;;;;;;;;;;5082373;28;20054;-64
2022/01/05 01:27:19;;;;;;;14.35;1.40;;;;;;;;;;5079436;28;20119;-63
2022/01/05 01:29:45;;;;;;;17.80;1.85;;;;;;;;;;5083709;28;20043;-63
2022/01/05 01:32:11;;;;;;;15.48;1.55;;;;;;;;;;5062471;28;20051;-62
2022/01/05 01:34:37;;;;;;;12.93;1.40;;;;;;;;;;5064695;28;20043;-62
2022/01/05 01:37:04;;;;;;;14.77;1.35;;;;;;;;;;5078047;28;20481;-63
2022/01/05 01:39:30;;;;;;;16.02;2.30;;;;;;;;;;5076464;28;20036;-63
2022/01/05 01:41:56;;;;;;;17.98;1.38;;;;;;;;;;5061365;28;20063;-63
2022/01/05 01:44:22;;;;;;;16.52;1.50;;;;;;;;;;5102524;28;20046;-63
2022/01/05 01:46:48;;;;;;;26.23;2.63;;;;;;;;;;5081327;28;20051;-63
2022/01/05 01:49:14;;;;;;;15.00;1.60;;;;;;;;;;5082635;28;20040;-63
2022/01/05 01:51:41;;;;;;;12.10;1.10;;;;;;;;;;5077987;28;20043;-64
2022/01/05 01:54:07;;;;;;;21.73;1.50;;;;;;;;;;5081450;28;20040;-62
2022/01/05 01:56:34;;;;;;;12.88;0.70;;;;;;;;;;5080590;28;20073;-63
2022/01/05 01:59:01;;;;;;;18.73;2.28;;;;;;;;;;5064732;28;20035;-63
2022/01/05 02:01:27;;;;;;;18.50;1.45;;;;;;;;;;5062722;28;20073;-64
2022/01/05 02:03:53;;;;;;;12.85;1.13;;;;;;;;;;5061316;28;20039;-62
2022/01/05 02:06:19;;;;;;;17.13;1.55;;;;;;;;;;5078377;28;20371;-62
2022/01/05 02:08:46;;;;;;;15.70;1.35;;;;;;;;;;5065444;28;20038;-63
2022/01/05 02:11:15;;;;;;;17.75;1.60;;;;;;;;;;5082434;28;20077;-63
2022/01/05 02:13:41;;;;;;;13.27;1.25;;;;;;;;;;5075736;28;20043;-63
2022/01/05 02:16:08;;;;;;;15.48;2.40;;;;;;;;;;5080403;28;20126;-64
2022/01/05 02:21:08;;;;;;;11.85;1.42;;;;;;;;;;5078570;28;20493;-62
2022/01/05 02:23:34;;;;;;;15.52;1.42;;;;;;;;;;5096340;28;20039;-62
2022/01/05 02:26:01;;;;;;;12.63;1.42;;;;;;;;;;5101635;28;20051;-63
2022/01/05 02:28:27;;;;;;;16.42;1.58;;;;;;;;;;5098573;28;20238;-62
2022/01/05 02:30:53;;;;;;;13.13;1.17;;;;;;;;;;5066600;28;20043;-62
2022/01/05 02:33:20;;;;;;;10.45;0.95;;;;;;;;;;5084604;28;20048;-62
2022/01/05 02:35:46;;;;;;;11.20;1.00;;;;;;;;;;5098870;28;20046;-62
2022/01/05 02:38:13;;;;;;;22.50;2.17;;;;;;;;;;5076859;28;20035;-63
2022/01/05 02:40:39;;;;;;;20.70;2.00;;;;;;;;;;5094686;28;20057;-63
2022/01/05 02:43:05;;;;;;;14.90;1.40;;;;;;;;;;5081639;28;20417;-61
2022/01/05 02:45:31;;;;;;;14.27;1.52;;;;;;;;;;5104110;28;20274;-61
2022/01/05 02:47:57;;;;;;;12.98;2.22;;;;;;;;;;5078732;28;20051;-62
2022/01/05 02:50:23;;;;;;;16.25;2.00;;;;;;;;;;5077140;28;20035;-61
2022/01/05 02:52:49;;;;;;;20.73;2.53;;;;;;;;;;5097256;28;20047;-63
2022/01/05 02:55:15;;;;;;;17.20;1.70;;;;;;;;;;5075618;28;20546;-62
2022/01/05 02:57:41;;;;;;;20.08;1.52;;;;;;;;;;5098224;28;20438;-62
2022/01/05 03:00:09;;;;;;;25.00;2.22;;;;;;;;;;5059341;28;20043;-62
2022/01/05 03:02:35;;;;;;;15.23;2.10;;;;;;;;;;5077321;28;20135;-64
2022/01/05 03:05:01;;;;;;;14.77;1.70;;;;;;;;;;5062280;28;20062;-63
2022/01/05 03:07:27;;;;;;;9.45;1.10;;;;;;;;;;5094913;28;20386;-62
2022/01/05 03:09:54;;;;;;;14.38;2.03;;;;;;;;;;5096035;28;20048;-62
2022/01/05 03:12:20;;;;;;;19.35;2.05;;;;;;;;;;5096556;28;20570;-62
2022/01/05 03:14:46;;;;;;;17.48;2.20;;;;;;;;;;5078175;28;20038;-62
2022/01/05 03:17:12;;;;;;;14.82;1.52;;;;;;;;;;5076385;28;20441;-62
2022/01/05 03:19:38;;;;;;;17.10;1.52;;;;;;;;;;5060078;28;20055;-63
2022/01/05 03:22:04;;;;;;;13.23;1.73;;;;;;;;;;5094609;28;20050;-62
2022/01/05 03:24:30;;;;;;;17.25;1.45;;;;;;;;;;5101281;28;20047;-62
2022/01/05 03:26:56;;;;;;;12.65;1.27;;;;;;;;;;5065817;28;20051;-62
2022/01/05 03:29:23;;;;;;;12.00;1.73;;;;;;;;;;5079489;28;20096;-62
2022/01/05 03:31:49;;;;;;;12.15;1.20;;;;;;;;;;5074503;28;20559;-62
2022/01/05 03:34:19;;;;;;;17.13;1.52;;;;;;;;;;5076634;28;20036;-62
2022/01/05 03:36:45;;;;;;;19.52;2.42;;;;;;;;;;5078955;28;20074;-61
2022/01/05 03:39:11;;;;;;;15.30;1.95;;;;;;;;;;5078582;28;20082;-62
2022/01/05 03:41:37;;;;;;;20.30;2.00;;;;;;;;;;5060652;28;20071;-63
2022/01/05 03:44:04;;;;;;;16.33;1.95;;;;;;;;;;5080964;28;20094;-63
2022/01/05 03:46:30;;;;;;;14.98;1.88;;;;;;;;;;5086205;28;20047;-63
2022/01/05 03:48:56;;;;;;;17.25;1.80;;;;;;;;;;5061278;28;20165;-63
2022/01/05 03:51:22;;;;;;;13.73;1.45;;;;;;;;;;5083154;28;20112;-63
2022/01/05 03:53:48;;;;;;;13.35;1.10;;;;;;;;;;5098232;28;20444;-63
2022/01/05 03:56:14;;;;;;;15.80;1.85;;;;;;;;;;5063957;28;20059;-63
2022/01/05 03:58:40;;;;;;;14.85;1.73;;;;;;;;;;5056960;28;20206;-63
2022/01/05 04:01:06;;;;;;;13.80;1.70;;;;;;;;;;5079368;28;20054;-62
2022/01/05 04:03:32;;;;;;;13.90;1.60;;;;;;;;;;5097828;28;20040;-63
2022/01/05 04:05:58;;;;;;;21.77;2.40;;;;;;;;;;5081548;28;20039;-63
2022/01/05 04:08:25;;;;;;;14.10;1.48;;;;;;;;;;5097123;28;20094;-64
2022/01/05 04:10:51;;;;;;;19.85;1.77;;;;;;;;;;5082159;28;20044;-63
2022/01/05 04:13:18;;;;;;;19.17;1.90;;;;;;;;;;5082186;28;20403;-63
2022/01/05 04:15:44;;;;;;;12.05;0.73;;;;;;;;;;5105016;28;20036;-63
2022/01/05 04:18:10;;;;;;;13.07;1.25;;;;;;;;;;5077560;28;20549;-61
2022/01/05 04:20:36;;;;;;;15.20;1.55;;;;;;;;;;5082207;28;20051;-63
2022/01/05 04:23:02;;;;;;;14.77;1.30;;;;;;;;;;5099267;28;20465;-63
2022/01/05 04:25:29;;;;;;;16.58;2.25;;;;;;;;;;5065968;28;20040;-62
2022/01/05 04:27:55;;;;;;;11.82;1.13;;;;;;;;;;5078791;28;20139;-63
2022/01/05 04:30:21;;;;;;;16.38;1.10;;;;;;;;;;5065099;28;20156;-63
2022/01/05 04:32:47;;;;;;;15.88;1.77;;;;;;;;;;5080375;28;20044;-63
2022/01/05 04:35:14;;;;;;;15.45;1.55;;;;;;;;;;5079451;28;20043;-63
2022/01/05 04:37:41;;;;;;;20.10;1.92;;;;;;;;;;5084098;28;20414;-62
2022/01/05 04:40:07;;;;;;;9.40;1.65;;;;;;;;;;5056330;28;20052;-63
2022/01/05 04:42:34;;;;;;;17.65;1.63;;;;;;;;;;5063969;28;20093;-63
2022/01/05 04:45:00;;;;;;;13.63;1.15;;;;;;;;;;5082379;28;20156;-64
2022/01/05 04:47:26;;;;;;;18.13;1.65;;;;;;;;;;5080867;28;20043;-63
2022/01/05 04:49:52;;;;;;;20.40;1.63;;;;;;;;;;5061757;28;20036;-63
2022/01/05 04:52:18;;;;;;;16.33;1.50;;;;;;;;;;5081532;28;20040;-64
2022/01/05 04:54:46;;;;;;;10.73;0.85;;;;;;;;;;5078690;28;20464;-63
2022/01/05 04:57:12;;;;;;;13.88;1.25;;;;;;;;;;5064107;28;20085;-63
2022/01/05 04:59:38;;;;;;;13.68;1.00;;;;;;;;;;5084015;28;20093;-63
2022/01/05 05:02:04;;;;;;;11.90;1.23;;;;;;;;;;5082621;28;20054;-64
2022/01/05 05:04:30;;;;;;;18.38;1.10;;;;;;;;;;5079155;28;20553;-63
2022/01/05 05:06:57;;;;;;;11.55;0.98;;;;;;;;;;5074039;28;20044;-63
2022/01/05 05:09:23;;;;;;;13.43;1.60;;;;;;;;;;5098638;28;20115;-63
2022/01/05 05:11:50;;;;;;;11.80;0.95;;;;;;;;;;5062945;28;20218;-63
2022/01/05 05:14:16;;;;;;;12.77;1.40;;;;;;;;;;5096969;28;20473;-63
2022/01/05 05:16:42;;;;;;;13.00;1.30;;;;;;;;;;5078047;28;20046;-63
2022/01/05 05:19:08;;;;;;;13.77;1.40;;;;;;;;;;5074189;28;20055;-64
2022/01/05 05:21:34;;;;;;;16.98;1.55;;;;;;;;;;5081865;28;20051;-64
2022/01/05 05:24:00;;;;;;;16.77;1.40;;;;;;;;;;5076696;28;20031;-64
2022/01/05 05:26:26;;;;;;;15.90;1.42;;;;;;;;;;5079498;28;20040;-63
2022/01/05 05:28:53;;;;;;;13.18;0.88;;;;;;;;;;5100649;28;20040;-63
2022/01/05 05:31:19;;;;;;;13.43;1.27;;;;;;;;;;5063627;28;20031;-63
2022/01/05 05:33:45;;;;;;;16.27;1.90;;;;;;;;;;5079916;28;20036;-62
2022/01/05 05:36:11;;;;;;;17.67;1.33;;;;;;;;;;5065649;28;20058;-62
2022/01/05 05:38:37;;;;;;;15.25;1.40;;;;;;;;;;5081385;28;20039;-62
2022/01/05 05:41:03;;;;;;;16.55;1.50;;;;;;;;;;5079523;28;20043;-63
2022/01/05 05:43:29;;;;;;;11.93;0.98;;;;;;;;;;5080379;28;20040;-63
2022/01/05 05:45:55;;;;;;;15.50;1.58;;;;;;;;;;5083534;28;20059;-62
2022/01/05 05:48:21;;;;;;;18.60;1.85;;;;;;;;;;5080467;28;20490;-63
2022/01/05 05:50:47;;;;;;;22.75;3.30;;;;;;;;;;5067742;28;20043;-62
2022/01/05 05:53:13;;;;;;;17.13;1.58;;;;;;;;;;5080359;28;20044;-62
2022/01/05 05:55:40;;;;;;;20.48;1.95;;;;;;;;;;5081243;28;20477;-63
2022/01/05 05:58:06;;;;;;;19.00;2.28;;;;;;;;;;5079426;28;20112;-63
2022/01/05 06:00:32;;;;;;;18.70;1.80;;;;;;;;;;5081291;28;20055;-62
2022/01/05 06:02:59;;;;;;;16.95;1.05;;;;;;;;;;5062423;28;20048;-63
2022/01/05 06:05:25;;;;;;;16.30;1.58;;;;;;;;;;5078124;28;20450;-63
2022/01/05 06:07:51;;;;;;;10.18;0.90;;;;;;;;;;5078748;28;20048;-62
2022/01/05 06:10:17;;;;;;;18.25;1.63;;;;;;;;;;5079292;28;20051;-62
2022/01/05 06:12:43;;;;;;;13.98;1.08;;;;;;;;;;5080796;28;20040;-62
2022/01/05 06:15:09;;;;;;;9.60;0.82;;;;;;;;;;5080478;28;20149;-63
2022/01/05 06:17:36;;;;;;;8.68;0.82;;;;;;;;;;5076517;28;20043;-63
2022/01/05 06:20:04;;;;;;;5.72;0.40;;;;;;;;;;5063273;28;20050;-63
2022/01/05 06:22:30;;;;;;;11.02;0.77;;;;;;;;;;5076694;28;20364;-62
2022/01/05 06:24:57;;;;;;;6.93;0.50;;;;;;;;;;5061868;28;20131;-62
2022/01/05 06:27:23;;;;;;;9.25;0.77;;;;;;;;;;5066428;28;20328;-62
2022/01/05 06:29:49;;;;;;;8.65;1.02;;;;;;;;;;5081578;28;20035;-62
2022/01/05 06:32:15;;;;;;;12.82;1.02;;;;;;;;;;5084059;28;20046;-62
2022/01/05 06:34:41;;;;;;;9.88;0.68;;;;;;;;;;5056640;28;20048;-62
2022/01/05 06:37:07;;;;;;;11.63;0.90;;;;;;;;;;5062715;28;20048;-62
2022/01/05 06:39:33;;;;;;;10.20;0.98;;;;;;;;;;5085611;28;20101;-62
2022/01/05 06:41:59;;;;;;;9.40;0.85;;;;;;;;;;5065118;28;20083;-62
2022/01/05 06:44:25;;;;;;;11.60;1.35;;;;;;;;;;5074829;28;20113;-62
2022/01/05 06:46:51;;;;;;;10.80;1.40;;;;;;;;;;5079881;28;20043;-62
2022/01/05 06:49:19;;;;;;;14.68;1.35;;;;;;;;;;5052844;28;20502;-62
2022/01/05 06:51:45;;;;;;;15.77;1.20;;;;;;;;;;5064098;28;20044;-62
2022/01/05 06:54:11;;;;;;;15.55;1.33;;;;;;;;;;5055826;28;20028;-62
2022/01/05 06:56:37;;;;;;;15.95;1.77;;;;;;;;;;5084020;28;20043;-61
2022/01/05 06:59:03;;;;;;;14.80;1.17;;;;;;;;;;5083715;28;20048;-61
2022/01/05 07:01:29;;;;;;;19.02;1.75;;;;;;;;;;5074334;28;20081;-61
2022/01/05 07:03:55;;;;;;;16.35;1.25;;;;;;;;;;5099337;28;20082;-61
2022/01/05 07:06:22;;;;;;;9.23;0.73;;;;;;;;;;5085733;28;20493;-61
2022/01/05 07:08:48;;;;;;;8.77;1.02;;;;;;;;;;5080075;28;20054;-63
2022/01/05 07:11:14;;;;;;;18.08;1.40;;;;;;;;;;5074747;28;20094;-62
2022/01/05 07:13:40;;;;;;;19.35;1.27;;;;;;;;;;5059474;28;20128;-61
2022/01/05 07:16:06;;;;;;;14.73;0.80;;;;;;;;;;5084413;28;20031;-61
2022/01/05 07:18:32;;;;;;;17.15;1.65;;;;;;;;;;5085998;28;20067;-61
2022/01/05 07:20:58;;;;;;;15.38;1.70;;;;;;;;;;5075012;28;20040;-62
2022/01/05 07:23:24;;;;;;;24.20;2.25;;;;;;;;;;5081089;28;20075;-61
2022/01/05 07:25:50;;;;;;;19.08;1.77;;;;;;;;;;5077793;28;20043;-61
2022/01/05 07:28:16;;;;;;;20.58;1.83;;;;;;;;;;5103486;28;20058;-61
2022/01/05 07:30:42;;;;;;;10.20;1.02;;;;;;;;;;5077903;28;20062;-61
2022/01/05 07:33:08;;;;;;;20.27;1.77;;;;;;;;;;5071950;28;20285;-61
2022/01/05 07:35:35;;;;;;;15.32;0.95;;;;;;;;;;5082078;28;20264;-62
2022/01/05 07:38:01;;;;;;;12.10;1.10;;;;;;;;;;5076889;28;20079;-62
2022/01/05 07:40:27;;;;;;;15.18;1.50;;;;;;;;;;5094326;28;20043;-61
2022/01/05 07:42:53;;;;;;;13.32;1.00;;;;;;;;;;5074758;28;20047;-63
2022/01/05 07:45:20;;;;;;;11.30;1.10;;;;;;;;;;5073893;28;20422;-62
2022/01/05 07:47:46;;;;;;;13.88;0.90;;;;;;;;;;5099301;28;20443;-62
2022/01/05 07:50:14;;;;;;;12.18;0.98;;;;;;;;;;5101997;28;20122;-62
2022/01/05 07:52:41;;;;;;;11.38;1.15;;;;;;;;;;5091852;28;20055;-62
2022/01/05 07:55:08;;;;;;;16.83;1.30;;;;;;;;;;5053924;28;20055;-62
2022/01/05 07:57:34;;;;;;;18.98;1.20;;;;;;;;;;5094998;28;20047;-62
2022/01/05 08:00:00;;;;;;;17.33;1.50;;;;;;;;;;5082429;28;20156;-62
2022/01/05 08:02:26;;;;;;;13.70;1.48;;;;;;;;;;5082832;28;20108;-63
2022/01/05 08:04:52;;;;;;;17.20;1.27;;;;;;;;;;5100252;28;20521;-63
2022/01/05 08:07:18;;;;;;;13.88;1.20;;;;;;;;;;5073308;28;20133;-63
2022/01/05 08:09:44;;;;;;;17.90;1.35;;;;;;;;;;5072919;28;20060;-62
2022/01/05 08:12:11;;;;;;;15.52;1.30;;;;;;;;;;5098532;28;20047;-62
2022/01/05 08:14:37;;;;;;;14.32;1.33;;;;;;;;;;5081388;28;20535;-63
2022/01/05 08:17:03;;;;;;;14.65;0.63;;;;;;;;;;5081267;28;20044;-63
2022/01/05 08:19:29;;;;;;;20.83;1.90;;;;;;;;;;5076858;28;20046;-63
2022/01/05 08:21:55;;;;;;;13.35;0.80;;;;;;;;;;5075736;28;20047;-62
2022/01/05 08:24:21;;;;;;;17.85;1.60;;;;;;;;;;5075978;28;20362;-62
2022/01/05 08:26:47;;;;;;;20.55;1.35;;;;;;;;;;5095002;28;20044;-62
2022/01/05 08:29:13;;;;;;;21.80;1.40;;;;;;;;;;5103477;27;20046;-62
2022/01/05 08:31:39;;;;;;;14.38;1.63;;;;;;;;;;5056576;28;20036;-61
2022/01/05 08:34:06;;;;;;;17.60;1.45;;;;;;;;;;5065223;28;20552;-61
2022/01/05 08:36:32;;;;;;;19.15;1.48;;;;;;;;;;5078425;28;20127;-61
2022/01/05 08:38:58;;;;;;;22.00;1.50;;;;;;;;;;5083725;28;20044;-62
2022/01/05 08:41:24;;;;;;;22.30;1.70;;;;;;;;;;5081088;28;20164;-62
2022/01/05 08:43:50;;;;;;;18.05;1.08;;;;;;;;;;5069454;28;20355;-63
2022/01/05 08:46:16;;;;;;;16.42;1.17;;;;;;;;;;5104700;27;20035;-62
2022/01/05 08:48:43;;;;;;;12.55;0.80;;;;;;;;;;5103895;28;20035;-62
2022/01/05 08:51:09;;;;;;;14.38;1.02;;;;;;;;;;5094068;28;20088;-61
2022/01/05 08:53:35;;;;;;;14.85;1.20;;;;;;;;;;5082663;28;20070;-61
2022/01/05 08:56:01;;;;;;;19.50;1.50;;;;;;;;;;5077916;28;20039;-61
2022/01/05 08:58:27;;;;;;;14.73;1.50;;;;;;;;;;5082220;28;20401;-59
2022/01/05 09:00:53;;;;;;;20.70;1.55;;;;;;;;;;5105652;28;20069;-60
2022/01/05 09:03:19;;;;;;;18.95;1.63;;;;;;;;;;5100057;28;20452;-61
2022/01/05 09:05:46;;;;;;;22.80;2.08;;;;;;;;;;5064387;28;20127;-61
2022/01/05 09:08:12;;;;;;;19.25;1.52;;;;;;;;;;5085106;28;20122;-61
2022/01/05 09:10:38;;;;;;;22.42;1.83;;;;;;;;;;5088534;28;20061;-62
2022/01/05 09:13:05;;;;;;;20.08;1.88;;;;;;;;;;5068218;28;20048;-62
2022/01/05 09:15:34;;;;;;;30.05;2.10;;;;;;;;;;5103581;28;20107;-61
2022/01/05 09:18:00;;;;;;;20.17;1.33;;;;;;;;;;5062604;28;20052;-61
2022/01/05 09:20:26;;;;;;;20.02;1.52;;;;;;;;;;5081423;28;20389;-61
2022/01/05 09:22:52;;;;;;;18.67;1.88;;;;;;;;;;5097568;27;20040;-62
2022/01/05 09:25:18;;;;;;;19.80;1.67;;;;;;;;;;5064859;28;20045;-61
2022/01/05 09:27:45;;;;;;;24.70;1.90;;;;;;;;;;5077432;28;20040;-62
2022/01/05 09:30:13;;;;;;;20.90;2.45;;;;;;;;;;5077988;28;20031;-61
2022/01/05 09:32:40;;;;;;;30.25;2.22;;;;;;;;;;5076950;28;20139;-63
2022/01/05 09:35:08;;;;;;;26.30;2.30;;;;;;;;;;5103614;28;20294;-63
2022/01/05 09:37:39;;;;;;;20.55;2.63;;;;;;;;;;5064302;28;20139;-63
2022/01/05 09:42:51;;;;;;;20.25;2.25;;;;;;;;;;5097699;28;20106;-63
2022/01/05 09:45:18;;;;;;;25.48;2.13;;;;;;;;;;5069543;28;20543;-63
2022/01/05 09:47:59;;;;;;;19.52;2.53;;;;;;;;;;5084879;28;20572;-63
2022/01/05 09:50:26;;;;;;;24.77;2.80;;;;;;;;;;5064411;28;20044;-63
2022/01/05 09:52:52;;;;;;;32.78;3.25;;;;;;;;;;5084262;28;20036;-63
2022/01/05 09:55:18;;;;;;;27.10;2.78;;;;;;;;;;5079699;28;20385;-63
2022/01/05 09:57:45;;;;;;;27.25;2.70;;;;;;;;;;5105185;28;20150;-62
2022/01/05 10:00:13;;;;;;;27.65;2.17;;;;;;;;;;5078643;28;20046;-63
2022/01/05 10:02:40;;;;;;;16.50;2.13;;;;;;;;;;5082288;27;20101;-62
2022/01/05 10:05:10;;;;;;;13.45;1.38;;;;;;;;;;5096442;28;20072;-63
2022/01/05 10:07:38;;;;;;;22.13;2.03;;;;;;;;;;5058141;28;20443;-62
2022/01/05 10:10:04;;;;;;;15.18;1.80;;;;;;;;;;5043721;28;20064;-62
2022/01/05 10:12:30;;;;;;;23.65;2.45;;;;;;;;;;5056852;28;20098;-62
2022/01/05 10:14:56;;;;;;;17.58;2.05;;;;;;;;;;5066770;28;20048;-62
2022/01/05 10:17:28;;;;;;;20.98;2.50;;;;;;;;;;5078825;28;20465;-62
2022/01/05 10:20:05;;;;;;;19.65;2.10;;;;;;;;;;5077187;28;20046;-62
2022/01/05 10:22:35;;;;;;;20.98;2.17;;;;;;;;;;5078347;28;20044;-62
2022/01/05 10:25:02;;;;;;;22.02;2.00;;;;;;;;;;5079017;28;20079;-63
2022/01/05 10:27:29;;;;;;;14.80;1.50;;;;;;;;;;5069024;28;20086;-62
2022/01/05 10:30:05;;;;;;;19.27;2.40;;;;;;;;;;5075197;28;20040;-62
2022/01/05 10:32:32;;;;;;;23.23;2.58;;;;;;;;;;5076584;28;20044;-62
2022/01/05 10:35:04;;;;;;;22.27;2.58;;;;;;;;;;5080478;28;20470;-62
2022/01/05 10:37:31;;;;;;;19.50;1.92;;;;;;;;;;5072079;28;20444;-62
2022/01/05 10:40:14;;;;;;;20.67;2.38;;;;;;;;;;5081123;28;20091;-62
2022/01/05 10:42:41;;;;;;;26.77;2.90;;;;;;;;;;5079122;28;20074;-62
2022/01/05 10:45:09;;;;;;;23.23;2.47;;;;;;;;;;5079191;28;20041;-61
2022/01/05 10:47:35;;;;;;;22.45;2.65;;;;;;;;;;5059899;28;20043;-61
2022/01/05 10:50:02;;;;;;;25.83;3.28;;;;;;;;;;5079336;28;20131;-61
2022/01/05 10:52:29;;;;;;;21.60;2.60;;;;;;;;;;5075312;28;20044;-61
2022/01/05 10:54:56;;;;;;;30.08;3.20;;;;;;;;;;5070338;28;20040;-62
2022/01/05 10:57:23;;;;;;;24.80;2.78;;;;;;;;;;5082179;28;20040;-61
2022/01/05 10:59:55;;;;;;;29.08;3.80;;;;;;;;;;5072852;28;20044;-61
2022/01/05 11:02:22;;;;;;;31.13;4.43;;;;;;;;;;5080466;28;20521;-61
2022/01/05 11:04:48;;;;;;;33.88;4.53;;;;;;;;;;5073174;28;20363;-61
2022/01/05 11:07:21;;;;;;;30.25;4.22;;;;;;;;;;5076942;28;20044;-61
2022/01/05 11:09:47;;;;;;;;;;;;;;;;;;5080534;28;20459;-61
2022/01/05 11:12:14;;;;;;;33.08;3.80;;;;;;;;;;5060067;28;19924;-62
2022/01/05 11:14:40;;;;;;;25.95;3.28;;;;;;;;;;5075672;28;20098;-62
2022/01/05 11:17:06;;;;;;;31.20;3.83;;;;;;;;;;5082763;28;20123;-62
2022/01/05 11:19:36;;;;;;;29.40;4.10;;;;;;;;;;5072484;28;20058;-60
2022/01/05 11:22:02;;;;;;;30.30;3.33;;;;;;;;;;5083180;28;20051;-61
2022/01/05 11:24:29;;;;;;;33.10;4.07;;;;;;;;;;5080904;28;20046;-60
2022/01/05 11:26:56;;;;;;;31.98;3.95;;;;;;;;;;5072969;28;20078;-60
2022/01/05 11:29:22;;;;;;;31.80;3.90;;;;;;;;;;5067372;28;20044;-60
2022/01/05 11:31:49;;;;;;;36.00;4.10;;;;;;;;;;5078174;28;20119;-60
2022/01/05 11:34:15;;;;;;;31.60;3.58;;;;;;;;;;5075673;28;20486;-60
2022/01/05 11:36:41;;;;;;;26.15;3.38;;;;;;;;;;5078490;28;20551;-60
2022/01/05 11:39:10;;;;;;;22.73;3.15;;;;;;;;;;5075224;28;20071;-62
2022/01/05 11:41:40;;;;;;;26.02;2.83;;;;;;;;;;5072586;28;20051;-62
2022/01/05 11:44:06;;;;;;;19.33;2.78;;;;;;;;;;5055540;28;20102;-62
2022/01/05 11:46:33;;;;;;;27.75;2.55;;;;;;;;;;5077807;28;20135;-62
2022/01/05 11:48:59;;;;;;;24.10;2.40;;;;;;;;;;5075245;28;20063;-62
2022/01/05 11:51:32;;;;;;;24.40;3.10;;;;;;;;;;5080566;28;20032;-62
2022/01/05 11:53:58;;;;;;;;;;;;;;;;;;5079240;28;20112;-61
2022/01/05 11:56:24;;;;;;;27.90;3.53;;;;;;;;;;5079432;28;20232;-62
2022/01/05 11:58:56;;;;;;;30.77;3.42;;;;;;;;;;5074378;28;20028;-62
2022/01/05 12:01:26;;;;;;;23.13;3.42;;;;;;;;;;5075763;28;20504;-62
2022/01/05 12:03:53;;;;;;;32.10;3.65;;;;;;;;;;5073142;28;20441;-61
2022/01/05 12:06:19;;;;;;;26.45;3.17;;;;;;;;;;5079412;28;20094;-62
2022/01/05 12:08:46;;;;;;;20.77;3.08;;;;;;;;;;5083810;28;20066;-62
2022/01/05 12:11:35;;;;;;;21.13;2.80;;;;;;;;;;5073982;28;20449;-61
2022/01/05 12:14:27;;;;;;;24.73;3.55;;;;;;;;;;5082542;28;20349;-62
2022/01/05 12:16:56;;;;;;;20.17;2.22;;;;;;;;;;5082850;28;20098;-62
2022/01/05 12:19:23;;;;;;;24.17;3.08;;;;;;;;;;5065817;28;20047;-62
2022/01/05 12:21:50;;;;;;;24.40;3.17;;;;;;;;;;5059895;28;20120;-62
2022/01/05 12:24:16;;;;;;;20.30;2.80;;;;;;;;;;5069741;28;20044;-62
2022/01/05 12:26:48;;;;;;;21.27;4.05;;;;;;;;;;5081786;28;20127;-61
2022/01/05 12:29:29;;;;;;;22.15;2.85;;;;;;;;;;5075225;28;20037;-60
2022/01/05 12:31:56;;;;;;;16.42;2.80;;;;;;;;;;5080749;28;20040;-60
2022/01/05 12:34:41;;;;;;;18.30;2.47;;;;;;;;;;5079728;28;20544;-61
2022/01/05 12:37:27;;;;;;;19.60;2.10;;;;;;;;;;5081460;28;20045;-61
2022/01/05 12:39:56;;;;;;;20.02;2.22;;;;;;;;;;5079418;28;20155;-60
2022/01/05 12:42:23;;;;;;;22.38;2.53;;;;;;;;;;5078067;28;20486;-60
2022/01/05 12:44:49;;;;;;;31.08;3.33;;;;;;;;;;5074288;28;20078;-61
2022/01/05 12:47:16;;;;;;;19.10;2.38;;;;;;;;;;5082136;28;20118;-61
2022/01/05 12:49:42;;;;;;;22.50;2.15;;;;;;;;;;5068756;28;20079;-60
2022/01/05 12:52:10;;;;;;;26.75;3.20;;;;;;;;;;5074982;28;20125;-60
2022/01/05 12:54:42;;;;;;;26.65;3.80;;;;;;;;;;5079204;28;20478;-62
2022/01/05 12:57:09;;;;;;;26.50;3.40;;;;;;;;;;5079610;28;20050;-61
2022/01/05 12:59:37;;;;;;;25.00;2.80;;;;;;;;;;5066691;28;20051;-61
2022/01/05 13:02:06;;;;;;;20.58;2.40;;;;;;;;;;5056244;28;20127;-62
2022/01/05 13:04:32;;;;;;;14.60;2.03;;;;;;;;;;5078230;28;20048;-61
2022/01/05 13:06:59;;;;;;;15.35;1.60;;;;;;;;;;5077846;28;20044;-62
2022/01/05 13:09:30;;;;;;;17.35;1.63;;;;;;;;;;5084818;28;20106;-61
2022/01/05 13:11:59;;;;;;;19.08;1.40;;;;;;;;;;5084258;28;20170;-63
2022/01/05 13:14:31;;;;;;;15.50;2.10;;;;;;;;;;5105994;27;20046;-61
2022/01/05 13:16:58;;;;;;;23.70;2.33;;;;;;;;;;5083466;28;20055;-61
2022/01/05 13:19:44;;;;;;;20.80;2.42;;;;;;;;;;5097646;28;20058;-62
2022/01/05 13:22:10;;;;;;;32.20;4.15;;;;;;;;;;5099649;28;20036;-61
2022/01/05 13:24:41;;;;;;;30.38;3.20;;;;;;;;;;5096706;27;20401;-61
2022/01/05 13:27:08;;;;;;;29.08;3.50;;;;;;;;;;5086167;28;20048;-63
2022/01/05 13:29:34;;;;;;;32.47;3.58;;;;;;;;;;5102298;28;20341;-62
2022/01/05 13:32:03;;;;;;;25.55;2.28;;;;;;;;;;5084360;28;20043;-62
2022/01/05 13:34:36;;;;;;;22.13;2.50;;;;;;;;;;5098111;28;20693;-62
2022/01/05 13:37:06;;;;;;;24.27;2.70;;;;;;;;;;5105489;28;20035;-62
2022/01/05 13:39:35;;;;;;;21.17;2.35;;;;;;;;;;5096537;28;20151;-61
2022/01/05 13:42:01;;;;;;;22.80;2.58;;;;;;;;;;5082385;28;20047;-62
2022/01/05 13:44:27;;;;;;;17.65;2.60;;;;;;;;;;5081570;28;20051;-61
2022/01/05 13:46:53;;;;;;;27.48;2.50;;;;;;;;;;5081060;28;20566;-62
2022/01/05 13:49:19;;;;;;;23.13;2.75;;;;;;;;;;5098881;28;20035;-61
2022/01/05 13:52:04;;;;;;;26.70;3.10;;;;;;;;;;5077523;28;20044;-61
2022/01/05 13:54:32;;;;;;;26.83;3.17;;;;;;;;;;5079968;28;20405;-61
2022/01/05 13:56:58;;;;;;;23.92;3.15;;;;;;;;;;5099988;28;20083;-61
2022/01/05 13:59:24;;;;;;;21.88;2.55;;;;;;;;;;5099783;28;20044;-61
2022/01/05 14:01:55;;;;;;;26.75;3.22;;;;;;;;;;5096651;28;20048;-61
2022/01/05 14:04:21;;;;;;;20.77;2.83;;;;;;;;;;5078211;28;20035;-63
2022/01/05 14:06:57;;;;;;;26.80;3.47;;;;;;;;;;5079339;28;20494;-62
2022/01/05 14:09:29;;;;;;;20.05;2.47;;;;;;;;;;5080802;28;20040;-62
2022/01/05 14:11:57;;;;;;;21.77;2.08;;;;;;;;;;5104135;28;20132;-62
2022/01/05 14:14:24;;;;;;;25.48;2.58;;;;;;;;;;5100082;28;20040;-62
2022/01/05 14:16:52;;;;;;;31.73;3.03;;;;;;;;;;5097486;28;20122;-62
2022/01/05 14:19:26;;;;;;;25.98;2.63;;;;;;;;;;5078585;28;20393;-62
2022/01/05 14:21:52;;;;;;;35.25;3.13;;;;;;;;;;5083996;28;20512;-64
2022/01/05 14:24:28;;;;;;;32.17;3.20;;;;;;;;;;5086570;28;20047;-62
2022/01/05 14:26:54;;;;;;;26.30;3.70;;;;;;;;;;5083382;28;20043;-62
2022/01/05 14:29:24;;;;;;;31.67;3.17;;;;;;;;;;5075829;28;20046;-61
2022/01/05 14:31:50;;;;;;;30.10;3.80;;;;;;;;;;5097782;28;20035;-63
2022/01/05 14:34:19;;;;;;;38.25;4.53;;;;;;;;;;5080318;28;20067;-61
2022/01/05 14:36:47;;;;;;;37.97;4.15;;;;;;;;;;5073903;28;20136;-62